Time;durP1;ratioP1;P1;durP2;ratioP2;P2;SDS_P1;SDS_P2;PMS_P1;PMS_P2;Temp;Humidity;BMP_temperature;BMP_pressure;BME280_temperature;BME280_humidity;BME280_pressure;Samples;Min_cycle;Max_cycle;Signal;HPM_P1;HPM_P2
2021/06/22 00:01:01;;;;;;;6.90;6.30;;;14.60;99.90;;;;;;5030955;28;20909;-91
2021/06/22 00:03:28;;;;;;;7.50;6.87;;;14.70;99.90;;;;;;5036212;28;20510;-90
2021/06/22 00:05:55;;;;;;;7.37;6.67;;;14.60;99.90;;;;;;5034964;28;20481;-89
2021/06/22 00:08:22;;;;;;;8.40;7.60;;;14.60;99.90;;;;;;5036811;28;20523;-90
2021/06/22 00:10:50;;;;;;;7.70;7.00;;;14.60;99.90;;;;;;5026182;28;20432;-89
2021/06/22 00:13:20;;;;;;;8.93;7.70;;;14.60;99.90;;;;;;5027631;28;20429;-93
2021/06/22 00:15:47;;;;;;;9.63;8.20;;;14.60;99.90;;;;;;5035951;28;20480;-91
2021/06/22 00:18:14;;;;;;;10.47;8.93;;;14.60;99.90;;;;;;5034754;28;20454;-88
2021/06/22 00:20:41;;;;;;;9.13;8.37;;;14.60;99.90;;;;;;5036286;28;20993;-91
2021/06/22 00:23:08;;;;;;;9.47;8.67;;;14.60;99.90;;;;;;5034170;28;20492;-91
2021/06/22 00:25:35;;;;;;;8.97;8.10;;;14.60;99.90;;;;;;5023550;28;20444;-91
2021/06/22 00:28:04;;;;;;;7.93;7.23;;;14.60;99.90;;;;;;5019485;28;20438;-90
2021/06/22 00:30:31;;;;;;;7.83;7.00;;;14.60;99.90;;;;;;5020136;28;20440;-88
2021/06/22 00:32:58;;;;;;;7.97;6.57;;;14.50;99.90;;;;;;5035732;28;20498;-87
2021/06/22 00:35:26;;;;;;;6.40;5.80;;;14.50;99.90;;;;;;5034661;28;20978;-89
2021/06/22 00:37:56;;;;;;;7.03;5.57;;;14.60;99.90;;;;;;5032916;28;21412;-89
2021/06/22 00:40:23;;;;;;;6.40;5.80;;;14.50;99.90;;;;;;5024127;28;20413;-87
2021/06/22 00:42:50;;;;;;;5.50;5.10;;;14.50;99.90;;;;;;5032972;28;20440;-90
2021/06/22 00:45:28;;;;;;;8.50;5.43;;;14.50;99.90;;;;;;5035862;28;20440;-93
2021/06/22 00:47:55;;;;;;;5.83;5.33;;;14.50;99.90;;;;;;5031312;28;20826;-93
2021/06/22 00:50:22;;;;;;;7.10;6.40;;;14.50;99.90;;;;;;5033516;28;20440;-93
2021/06/22 00:52:49;;;;;;;5.37;4.87;;;14.50;99.90;;;;;;5016391;28;20462;-89
2021/06/22 00:55:29;;;;;;;4.80;4.30;;;14.50;99.90;;;;;;5034768;28;20440;-88
2021/06/22 00:57:58;;;;;;;4.80;4.40;;;14.50;99.90;;;;;;5034756;28;20452;-89
2021/06/22 01:00:27;;;;;;;5.97;5.37;;;14.50;99.90;;;;;;5028539;28;20517;-91
2021/06/22 01:02:55;;;;;;;5.07;4.57;;;14.40;99.90;;;;;;5021159;28;20902;-91
2021/06/22 01:05:22;;;;;;;4.87;4.47;;;14.50;99.90;;;;;;5026381;28;20482;-90
2021/06/22 01:07:53;;;;;;;5.70;4.37;;;14.40;99.90;;;;;;5033310;28;20441;-90
2021/06/22 01:10:20;;;;;;;4.13;3.73;;;14.40;99.90;;;;;;5020334;28;20466;-88
2021/06/22 01:12:47;;;;;;;4.60;4.20;;;14.40;99.90;;;;;;5032563;28;20421;-91
2021/06/22 01:15:16;;;;;;;4.23;3.70;;;14.40;99.90;;;;;;5033560;28;20485;-90
2021/06/22 01:17:45;;;;;;;5.50;3.70;;;14.40;99.90;;;;;;5032375;28;20466;-88
2021/06/22 01:20:13;;;;;;;3.13;2.90;;;14.40;99.90;;;;;;5017923;28;20453;-92
2021/06/22 01:22:46;;;;;;;4.23;3.73;;;14.30;99.90;;;;;;5013446;28;20448;-92
2021/06/22 01:25:14;;;;;;;3.07;2.80;;;14.30;99.90;;;;;;5020275;28;20568;-89
2021/06/22 01:27:42;;;;;;;2.90;2.70;;;14.30;99.90;;;;;;5014186;28;20967;-88
2021/06/22 01:30:11;;;;;;;2.90;2.67;;;14.20;99.90;;;;;;5020095;28;20433;-89
2021/06/22 01:32:37;;;;;;;3.10;2.80;;;14.20;99.90;;;;;;5032370;28;20450;-91
2021/06/22 01:35:06;;;;;;;2.60;2.30;;;14.20;99.90;;;;;;5032070;28;20441;-87
2021/06/22 01:37:33;;;;;;;2.60;2.40;;;14.20;99.90;;;;;;5025749;28;20459;-91
2021/06/22 01:40:05;;;;;;;3.80;2.57;;;14.10;99.90;;;;;;5022426;28;20417;-91
2021/06/22 01:42:32;;;;;;;2.50;2.30;;;14.10;99.90;;;;;;5013978;28;20811;-89
2021/06/22 01:45:01;;;;;;;2.70;2.50;;;14.10;99.90;;;;;;5032876;28;20436;-92
2021/06/22 01:47:27;;;;;;;2.63;2.40;;;14.10;99.90;;;;;;5031071;28;20502;-89
2021/06/22 01:49:58;;;;;;;3.40;3.10;;;14.10;99.90;;;;;;5017868;28;20447;-90
2021/06/22 01:52:25;;;;;;;3.30;2.60;;;14.00;99.90;;;;;;5020282;28;20484;-90
2021/06/22 01:54:53;;;;;;;2.33;2.13;;;14.00;99.90;;;;;;5027638;28;20461;-91
2021/06/22 01:57:22;;;;;;;2.30;2.10;;;14.00;99.90;;;;;;5031232;28;20529;-91
2021/06/22 01:59:49;;;;;;;3.20;2.70;;;14.00;99.90;;;;;;5030024;28;20681;-92
2021/06/22 02:02:16;;;;;;;3.20;2.93;;;14.00;99.90;;;;;;5030499;28;20457;-90
2021/06/22 02:04:43;;;;;;;3.50;3.20;;;14.00;99.90;;;;;;5024915;28;20441;-91
2021/06/22 02:07:10;;;;;;;3.63;2.80;;;13.90;99.90;;;;;;5018931;28;20479;-90
2021/06/22 02:09:37;;;;;;;3.47;3.17;;;13.90;99.90;;;;;;5030136;28;20470;-93
2021/06/22 02:12:05;;;;;;;5.77;2.67;;;13.90;99.90;;;;;;5016734;28;20471;-90
2021/06/22 02:14:34;;;;;;;6.00;3.37;;;13.90;99.90;;;;;;5024599;28;20557;-93
2021/06/22 02:17:01;;;;;;;3.30;3.00;;;13.90;99.90;;;;;;5033359;28;20508;-91
2021/06/22 02:19:29;;;;;;;3.10;2.80;;;13.90;99.90;;;;;;5036245;28;20427;-87
2021/06/22 02:21:57;;;;;;;4.43;3.20;;;13.90;99.90;;;;;;5024388;28;20462;-88
2021/06/22 02:24:25;;;;;;;3.30;3.00;;;13.90;99.90;;;;;;5044456;28;20451;-92
2021/06/22 02:26:52;;;;;;;4.40;3.30;;;13.90;99.90;;;;;;5041466;28;20487;-89
2021/06/22 02:29:20;;;;;;;3.43;3.13;;;13.90;99.90;;;;;;5041765;28;20522;-90
2021/06/22 02:31:49;;;;;;;3.40;3.10;;;13.90;99.90;;;;;;5042112;28;20564;-91
2021/06/22 02:34:15;;;;;;;6.00;4.00;;;13.90;99.90;;;;;;5019258;28;20545;-87
2021/06/22 02:36:42;;;;;;;4.43;3.30;;;13.90;99.90;;;;;;5016945;28;20444;-92
2021/06/22 02:39:09;;;;;;;3.47;2.97;;;13.90;99.90;;;;;;5027229;28;20454;-91
2021/06/22 02:41:36;;;;;;;4.13;3.07;;;13.90;99.90;;;;;;5030769;28;20452;-90
2021/06/22 02:44:03;;;;;;;4.37;3.23;;;13.90;99.90;;;;;;5030750;28;20910;-92
2021/06/22 02:46:30;;;;;;;4.20;3.80;;;13.90;99.90;;;;;;5028262;28;20485;-92
2021/06/22 02:48:58;;;;;;;6.37;4.13;;;13.90;99.90;;;;;;5018349;28;20955;-90
2021/06/22 02:51:25;;;;;;;6.30;4.17;;;13.90;99.90;;;;;;5023687;28;20473;-91
2021/06/22 02:53:52;;;;;;;4.73;4.33;;;13.90;99.90;;;;;;5030815;28;20446;-91
2021/06/22 02:56:19;;;;;;;7.20;5.10;;;14.00;99.90;;;;;;5028722;28;20485;-91
2021/06/22 02:58:46;;;;;;;8.80;6.70;;;14.00;99.90;;;;;;5030571;28;20441;-93
2021/06/22 03:01:13;;;;;;;8.20;7.13;;;14.00;99.90;;;;;;5032103;28;20988;-90
2021/06/22 03:03:40;;;;;;;11.03;9.03;;;14.00;99.90;;;;;;5030876;28;20475;-92
2021/06/22 03:06:08;;;;;;;11.67;9.67;;;14.00;99.90;;;;;;5031369;28;20448;-92
2021/06/22 03:08:35;;;;;;;14.77;10.00;;;14.00;99.90;;;;;;5030595;28;20494;-89
2021/06/22 03:11:02;;;;;;;13.67;10.57;;;14.00;99.90;;;;;;5018856;28;20447;-89
2021/06/22 03:13:29;;;;;;;11.77;9.13;;;13.90;99.90;;;;;;5018331;28;20440;-89
2021/06/22 03:15:56;;;;;;;15.73;9.43;;;14.00;99.90;;;;;;5029808;28;20488;-90
2021/06/22 03:18:23;;;;;;;12.40;9.07;;;14.00;99.90;;;;;;5028964;28;20450;-89
2021/06/22 03:20:50;;;;;;;15.40;10.90;;;14.00;99.90;;;;;;5029505;28;20465;-90
2021/06/22 03:23:19;;;;;;;14.40;10.47;;;13.90;99.90;;;;;;5030375;28;20571;-91
2021/06/22 03:25:45;;;;;;;14.53;11.47;;;13.90;99.90;;;;;;5029662;28;20485;-90
2021/06/22 03:28:12;;;;;;;12.67;10.23;;;13.90;99.90;;;;;;5032060;28;20488;-90
2021/06/22 03:30:42;;;;;;;12.00;9.37;;;13.90;99.90;;;;;;5030375;28;20787;-87
2021/06/22 03:33:09;;;;;;;11.97;10.73;;;13.90;99.90;;;;;;5019855;28;20995;-89
2021/06/22 03:35:37;;;;;;;14.00;10.27;;;13.90;99.90;;;;;;5020318;28;20460;-87
2021/06/22 03:38:04;;;;;;;14.30;10.13;;;13.80;99.90;;;;;;5028514;28;20942;-89
2021/06/22 03:40:33;;;;;;;12.73;9.37;;;13.80;99.90;;;;;;5028915;28;20984;-91
2021/06/22 03:43:01;;;;;;;13.23;10.37;;;13.80;99.90;;;;;;5028671;28;21000;-91
2021/06/22 03:45:28;;;;;;;10.03;8.90;;;13.70;99.90;;;;;;5030595;28;20477;-89
2021/06/22 03:47:55;;;;;;;13.63;9.20;;;13.70;99.90;;;;;;5020461;28;21018;-89
2021/06/22 03:50:22;;;;;;;8.63;7.73;;;;;;;;;;5019851;28;20445;-89
2021/06/22 03:52:49;;;;;;;10.40;9.30;;;13.80;99.90;;;;;;5011224;28;20458;-90
2021/06/22 03:58:00;;;;;;;10.43;8.63;;;13.80;99.90;;;;;;5028971;28;20427;-89
2021/06/22 04:00:28;;;;;;;11.13;8.40;;;13.70;99.90;;;;;;5029763;28;20499;-91
2021/06/22 04:02:58;;;;;;;12.33;7.53;;;13.70;99.90;;;;;;5018093;28;20453;-88
2021/06/22 04:05:44;;;;;;;7.87;6.93;;;13.70;99.90;;;;;;5013352;28;20492;-89
2021/06/22 04:08:10;;;;;;;8.90;7.07;;;13.70;99.90;;;;;;5029990;28;20525;-88
2021/06/22 04:10:37;;;;;;;7.40;6.60;;;13.70;99.90;;;;;;5028348;28;20467;-90
2021/06/22 04:13:06;;;;;;;6.57;5.83;;;13.70;99.90;;;;;;5032946;28;20810;-93
2021/06/22 04:15:33;;;;;;;6.50;5.90;;;13.70;99.90;;;;;;5023635;28;20490;-91
2021/06/22 04:18:02;;;;;;;6.53;5.83;;;13.60;99.90;;;;;;5018296;28;20632;-91
2021/06/22 04:20:30;;;;;;;6.27;5.67;;;13.60;99.90;;;;;;5010009;28;20475;-91
2021/06/22 04:22:57;;;;;;;7.70;5.87;;;13.60;99.90;;;;;;5020371;28;20456;-90
2021/06/22 04:25:26;;;;;;;5.57;5.07;;;13.60;99.90;;;;;;5031203;28;21461;-90
2021/06/22 04:27:53;;;;;;;8.13;5.57;;;13.60;99.90;;;;;;5031747;28;20554;-91
2021/06/22 04:30:23;;;;;;;8.00;6.73;;;13.60;99.90;;;;;;5029625;28;20441;-89
2021/06/22 04:32:50;;;;;;;9.30;7.20;;;13.50;99.90;;;;;;5020395;28;20999;-87
2021/06/22 04:35:19;;;;;;;9.23;6.80;;;13.50;99.90;;;;;;5030351;28;20471;-89
2021/06/22 04:37:46;;;;;;;6.80;6.10;;;13.60;99.90;;;;;;5024535;28;20815;-91
2021/06/22 04:40:13;;;;;;;8.53;5.27;;;13.50;99.90;;;;;;5032845;28;20455;-90
2021/06/22 04:42:40;;;;;;;5.60;5.10;;;13.50;99.90;;;;;;5031755;28;20468;-87
2021/06/22 04:45:09;;;;;;;5.93;4.90;;;13.50;99.90;;;;;;5024709;28;20456;-92
2021/06/22 04:47:37;;;;;;;5.13;4.63;;;13.50;99.90;;;;;;5012208;28;20482;-91
2021/06/22 04:50:05;;;;;;;5.10;3.97;;;13.50;99.90;;;;;;5032232;28;20461;-92
2021/06/22 04:52:35;;;;;;;4.00;3.70;;;13.40;99.90;;;;;;5032805;28;20751;-91
2021/06/22 04:55:04;;;;;;;4.87;4.33;;;13.40;99.90;;;;;;5026355;28;21025;-88
2021/06/22 04:57:31;;;;;;;5.27;4.60;;;13.40;99.90;;;;;;5033687;28;20477;-90
2021/06/22 04:59:59;;;;;;;6.77;4.97;;;13.40;99.90;;;;;;5019716;28;20454;-89
2021/06/22 05:02:26;;;;;;;7.23;3.83;;;13.40;99.90;;;;;;5016030;28;20449;-89
2021/06/22 05:04:54;;;;;;;5.33;4.83;;;13.40;99.90;;;;;;5017583;28;20460;-88
2021/06/22 05:07:21;;;;;;;5.63;4.50;;;13.40;99.90;;;;;;5032114;28;20448;-86
2021/06/22 05:09:48;;;;;;;4.67;4.17;;;13.40;99.90;;;;;;5032119;28;20447;-88
2021/06/22 05:12:15;;;;;;;4.90;4.43;;;13.40;99.90;;;;;;5029559;28;20468;-88
2021/06/22 05:14:42;;;;;;;4.60;3.90;;;13.40;99.90;;;;;;5020553;28;20430;-90
2021/06/22 05:17:09;;;;;;;3.60;3.30;;;13.40;99.90;;;;;;5026128;28;20471;-87
2021/06/22 05:19:35;;;;;;;8.93;4.10;;;13.40;99.90;;;;;;5030890;28;20834;-86
2021/06/22 05:22:04;;;;;;;4.10;3.70;;;13.40;99.90;;;;;;5032313;28;20448;-86
2021/06/22 05:24:31;;;;;;;5.50;3.47;;;13.40;99.90;;;;;;5031075;28;20469;-87
2021/06/22 05:26:58;;;;;;;4.60;3.70;;;13.40;99.90;;;;;;5021674;28;20489;-85
2021/06/22 05:29:25;;;;;;;5.13;4.10;;;13.40;99.90;;;;;;5019203;28;20490;-90
2021/06/22 05:31:51;;;;;;;4.07;3.27;;;13.40;99.90;;;;;;5025106;28;20465;-90
2021/06/22 05:34:18;;;;;;;3.97;3.30;;;13.30;99.90;;;;;;5030062;28;20465;-90
2021/06/22 05:36:45;;;;;;;7.93;3.40;;;13.40;99.90;;;;;;5031347;28;20460;-90
2021/06/22 05:39:14;;;;;;;4.37;3.97;;;13.30;99.90;;;;;;5016001;28;20488;-88
2021/06/22 05:41:41;;;;;;;6.70;3.80;;;13.40;99.90;;;;;;5010533;28;20440;-90
2021/06/22 05:44:08;;;;;;;4.23;3.83;;;13.40;99.90;;;;;;5025034;28;20470;-88
2021/06/22 05:46:35;;;;;;;6.00;4.30;;;13.40;99.90;;;;;;5031126;28;20466;-84
2021/06/22 05:49:02;;;;;;;5.70;4.10;;;13.40;99.90;;;;;;5015539;28;20480;-88
2021/06/22 05:51:29;;;;;;;5.47;4.10;;;13.50;99.90;;;;;;5029867;28;20470;-87
2021/06/22 05:53:56;;;;;;;5.63;4.53;;;13.50;99.90;;;;;;5033500;28;20465;-88
2021/06/22 05:56:24;;;;;;;6.73;4.67;;;13.50;99.90;;;;;;5032235;28;20488;-88
2021/06/22 05:58:51;;;;;;;6.00;5.40;;;13.50;99.90;;;;;;5033004;28;20443;-88
2021/06/22 06:01:18;;;;;;;6.10;5.30;;;13.50;99.90;;;;;;5032460;28;20462;-88
2021/06/22 06:03:45;;;;;;;6.50;5.50;;;13.60;99.90;;;;;;5021710;28;20457;-90
2021/06/22 06:06:12;;;;;;;5.87;4.40;;;13.60;99.90;;;;;;5016985;28;20509;-87
2021/06/22 06:08:38;;;;;;;7.00;6.03;;;13.60;99.90;;;;;;5031244;28;20476;-87
2021/06/22 06:11:06;;;;;;;9.17;5.30;;;13.60;99.90;;;;;;5031608;28;20446;-84
2021/06/22 06:13:36;;;;;;;8.53;5.63;;;13.60;99.90;;;;;;5026370;28;20823;-88
2021/06/22 06:16:04;;;;;;;9.03;5.40;;;13.60;99.90;;;;;;5005056;28;20495;-85
2021/06/22 06:18:32;;;;;;;9.87;5.77;;;13.60;99.90;;;;;;5032586;28;20454;-84
2021/06/22 06:21:00;;;;;;;8.00;5.90;;;13.60;99.90;;;;;;5008697;28;20446;-84
2021/06/22 06:23:31;;;;;;;7.40;6.30;;;13.50;99.90;;;;;;5015556;28;20462;-85
2021/06/22 06:25:58;;;;;;;10.70;6.20;;;13.50;99.90;;;;;;5023386;28;20472;-86
2021/06/22 06:28:28;;;;;;;6.67;5.67;;;13.40;99.90;;;;;;4994307;28;20506;-87
2021/06/22 06:30:57;;;;;;;8.97;6.30;;;13.40;99.90;;;;;;5027656;28;20465;-84
2021/06/22 06:33:24;;;;;;;7.10;6.40;;;13.40;99.90;;;;;;5031056;28;20482;-85
2021/06/22 06:35:54;;;;;;;9.63;6.73;;;13.40;99.90;;;;;;5030254;28;20464;-89
2021/06/22 06:38:21;;;;;;;10.40;7.37;;;13.40;99.90;;;;;;5029737;28;20454;-84
2021/06/22 06:40:48;;;;;;;9.17;6.57;;;13.50;99.90;;;;;;5017268;28;20798;-89
2021/06/22 06:43:15;;;;;;;9.67;5.83;;;13.50;99.90;;;;;;5020124;28;20490;-89
2021/06/22 06:45:42;;;;;;;8.40;5.80;;;13.50;99.90;;;;;;5017255;28;20459;-88
2021/06/22 06:48:11;;;;;;;12.63;7.27;;;13.50;99.90;;;;;;5022909;28;20487;-89
2021/06/22 06:50:37;;;;;;;9.83;5.50;;;13.50;99.90;;;;;;5010516;28;20446;-87
2021/06/22 06:53:04;;;;;;;6.13;5.33;;;13.50;99.90;;;;;;5011285;28;20445;-83
2021/06/22 07:00:47;;;;;;;9.77;5.00;;;13.60;99.90;;;;;;5307617;22;20481;-86
2021/06/22 07:03:15;;;;;;;9.93;5.30;;;13.60;99.90;;;;;;5052269;28;20788;-83
2021/06/22 07:05:42;;;;;;;10.00;6.33;;;13.60;99.90;;;;;;5058152;28;20477;-84
2021/06/22 07:08:09;;;;;;;6.80;4.63;;;13.60;99.90;;;;;;5064716;28;20474;-86
2021/06/22 07:10:38;;;;;;;7.93;5.30;;;13.70;99.90;;;;;;5053173;28;20435;-86
2021/06/22 07:13:12;;;;;;;6.40;5.80;;;13.60;99.90;;;;;;5067208;28;20546;-84
2021/06/22 07:15:39;;;;;;;6.97;5.50;;;13.70;99.90;;;;;;5055019;28;20514;-85
2021/06/22 07:18:07;;;;;;;6.93;5.50;;;13.70;99.90;;;;;;5054305;28;20468;-84
2021/06/22 07:20:36;;;;;;;8.13;5.60;;;13.70;99.90;;;;;;5068838;28;20977;-86
2021/06/22 07:23:03;;;;;;;8.43;6.00;;;13.70;99.90;;;;;;5064595;28;20558;-84
2021/06/22 07:25:31;;;;;;;6.20;4.80;;;13.80;99.90;;;;;;5067863;28;20490;-82
2021/06/22 07:27:58;;;;;;;6.60;4.60;;;13.90;99.90;;;;;;5035993;28;20452;-86
2021/06/22 07:30:27;;;;;;;7.87;5.17;;;13.90;99.90;;;;;;5055343;28;20456;-86
2021/06/22 07:32:55;;;;;;;6.40;5.60;;;14.00;99.90;;;;;;5049643;28;20457;-85
2021/06/22 07:35:23;;;;;;;5.83;5.27;;;14.00;99.90;;;;;;5047616;28;20472;-85
2021/06/22 07:37:52;;;;;;;7.90;5.47;;;14.10;99.90;;;;;;5049338;28;20487;-85
2021/06/22 07:40:19;;;;;;;9.53;5.37;;;14.10;99.90;;;;;;5058077;28;20459;-86
2021/06/22 07:42:47;;;;;;;7.50;6.17;;;14.10;99.90;;;;;;5054055;28;20812;-85
2021/06/22 07:45:14;;;;;;;6.33;5.73;;;14.20;99.90;;;;;;5060125;28;20445;-83
2021/06/22 07:47:41;;;;;;;7.83;6.73;;;14.30;99.90;;;;;;5061178;28;20789;-84
2021/06/22 07:50:10;;;;;;;8.03;5.77;;;14.40;99.90;;;;;;5048326;28;20477;-85
2021/06/22 07:52:37;;;;;;;7.47;6.53;;;14.40;99.90;;;;;;5062711;28;20553;-84
2021/06/22 07:55:13;;;;;;;7.37;5.43;;;14.50;99.90;;;;;;5032567;28;20479;-85
2021/06/22 07:57:41;;;;;;;9.93;6.23;;;14.50;99.90;;;;;;5058110;28;20464;-84
2021/06/22 08:00:19;;;;;;;9.93;7.30;;;14.60;99.90;;;;;;5029385;28;20839;-87
2021/06/22 08:02:45;;;;;;;9.00;6.30;;;14.60;99.90;;;;;;5025478;28;20450;-87
2021/06/22 08:05:13;;;;;;;7.53;6.53;;;14.60;99.90;;;;;;5032571;28;20548;-84
2021/06/22 08:07:40;;;;;;;10.60;6.80;;;14.60;99.90;;;;;;5029338;28;20650;-86
2021/06/22 08:10:09;;;;;;;6.50;5.90;;;14.60;99.90;;;;;;5026879;28;20499;-87
2021/06/22 08:12:37;;;;;;;5.90;5.40;;;14.60;99.90;;;;;;5003022;28;20829;-87
2021/06/22 08:15:05;;;;;;;11.00;5.63;;;14.60;99.90;;;;;;5025375;28;20838;-88
2021/06/22 08:17:32;;;;;;;5.90;5.37;;;14.60;99.90;;;;;;5006673;28;20820;-84
2021/06/22 08:19:59;;;;;;;8.37;4.77;;;14.60;99.90;;;;;;5030691;28;20814;-82
2021/06/22 08:22:26;;;;;;;6.17;5.47;;;14.60;99.90;;;;;;5028945;28;20434;-85
2021/06/22 08:24:53;;;;;;;4.83;4.37;;;14.50;99.90;;;;;;5015152;28;20789;-84
2021/06/22 08:27:21;;;;;;;5.20;4.70;;;14.50;99.90;;;;;;5017428;28;20817;-85
2021/06/22 08:29:48;;;;;;;4.37;3.60;;;14.50;99.90;;;;;;5011906;28;20571;-84
2021/06/22 08:32:15;;;;;;;5.17;3.90;;;14.50;99.90;;;;;;5031118;28;20826;-82
2021/06/22 08:34:42;;;;;;;5.40;3.53;;;14.50;99.90;;;;;;5026329;28;20541;-84
2021/06/22 08:37:10;;;;;;;6.70;4.20;;;14.50;99.90;;;;;;5016611;28;20461;-84
2021/06/22 08:39:37;;;;;;;3.87;3.50;;;14.40;99.90;;;;;;5001075;28;20434;-84
2021/06/22 08:42:06;;;;;;;5.17;4.20;;;14.40;99.90;;;;;;5014319;28;20524;-83
2021/06/22 08:44:35;;;;;;;6.20;3.97;;;14.40;99.90;;;;;;5003084;28;20808;-84
2021/06/22 08:47:03;;;;;;;4.73;4.00;;;14.40;99.90;;;;;;4994753;28;20460;-82
2021/06/22 08:49:34;;;;;;;7.40;5.00;;;14.50;99.90;;;;;;5024160;28;20481;-84
2021/06/22 08:52:02;;;;;;;6.43;4.33;;;14.50;99.90;;;;;;5020319;28;20461;-86
2021/06/22 08:54:29;;;;;;;7.97;4.70;;;14.50;99.90;;;;;;5020406;28;20465;-84
2021/06/22 08:56:58;;;;;;;7.00;4.90;;;14.50;99.90;;;;;;5031885;28;20457;-82
2021/06/22 08:59:25;;;;;;;5.30;4.47;;;14.50;99.90;;;;;;5034754;28;20885;-85
2021/06/22 09:01:53;;;;;;;6.50;5.10;;;14.50;99.90;;;;;;5049739;28;20441;-84
2021/06/22 09:04:20;;;;;;;4.83;4.43;;;14.60;99.90;;;;;;5042666;28;22342;-83
2021/06/22 09:06:47;;;;;;;7.60;4.70;;;14.60;99.90;;;;;;5036118;28;20481;-84
2021/06/22 09:09:14;;;;;;;8.47;4.80;;;14.60;99.90;;;;;;5041969;28;20977;-85
2021/06/22 09:11:41;;;;;;;6.33;4.30;;;14.60;99.90;;;;;;5044398;28;20817;-83
2021/06/22 09:14:10;;;;;;;7.33;4.57;;;14.60;99.90;;;;;;5051002;28;20416;-86
2021/06/22 09:16:38;;;;;;;5.63;4.67;;;14.60;99.90;;;;;;5031821;28;20485;-84
2021/06/22 09:19:08;;;;;;;4.80;4.13;;;14.60;99.90;;;;;;5040849;28;20540;-84
2021/06/22 09:21:43;;;;;;;5.70;4.40;;;14.60;99.90;;;;;;5039888;28;20935;-84
2021/06/22 09:24:19;;;;;;;6.10;4.30;;;14.60;99.90;;;;;;5030935;28;20559;-87
2021/06/22 09:26:50;;;;;;;6.00;4.40;;;14.60;99.90;;;;;;5006105;28;20961;-87
2021/06/22 09:29:20;;;;;;;5.70;4.43;;;14.60;99.90;;;;;;5051974;28;20476;-85
2021/06/22 09:31:51;;;;;;;8.37;4.63;;;14.60;99.90;;;;;;5056379;28;20946;-85
2021/06/22 09:34:20;;;;;;;7.00;4.20;;;14.50;99.90;;;;;;5038817;28;21263;-84
2021/06/22 09:36:52;;;;;;;5.17;3.80;;;14.50;99.90;;;;;;5047296;28;21043;-82
2021/06/22 09:39:19;;;;;;;6.17;3.83;;;14.50;99.90;;;;;;5050701;28;20440;-86
2021/06/22 09:41:46;;;;;;;5.63;4.60;;;14.60;99.90;;;;;;5067464;28;20464;-84
2021/06/22 09:44:15;;;;;;;8.17;4.33;;;14.50;99.90;;;;;;5068383;28;20459;-82
2021/06/22 09:46:44;;;;;;;8.60;4.07;;;14.50;99.90;;;;;;5058373;28;20467;-82
2021/06/22 09:49:14;;;;;;;4.50;4.07;;;14.50;99.90;;;;;;5042420;28;20480;-88
2021/06/22 09:51:51;;;;;;;9.10;4.33;;;14.60;99.90;;;;;;5051705;28;20850;-84
2021/06/22 09:54:20;;;;;;;5.30;4.17;;;14.60;99.90;;;;;;5050544;28;20547;-81
2021/06/22 09:56:52;;;;;;;7.10;3.97;;;14.60;99.90;;;;;;5050596;28;20533;-85
2021/06/22 09:59:20;;;;;;;7.53;4.17;;;14.60;99.90;;;;;;5049221;28;20466;-86
2021/06/22 10:01:47;;;;;;;5.67;4.20;;;14.60;99.90;;;;;;5039621;28;20452;-85
2021/06/22 10:04:18;;;;;;;5.37;4.37;;;14.60;99.90;;;;;;5060377;28;20804;-85
2021/06/22 10:06:53;;;;;;;5.73;4.40;;;14.60;99.90;;;;;;5052249;28;20445;-87
2021/06/22 10:09:22;;;;;;;7.10;4.17;;;14.70;99.90;;;;;;5052905;28;20446;-87
2021/06/22 10:11:56;;;;;;;6.67;4.40;;;14.80;99.90;;;;;;5069356;28;20431;-88
2021/06/22 10:14:25;;;;;;;5.20;4.70;;;14.80;99.90;;;;;;5054942;28;20445;-87
2021/06/22 10:16:53;;;;;;;7.50;4.87;;;14.80;99.90;;;;;;5071926;28;20457;-87
2021/06/22 10:19:23;;;;;;;5.27;4.77;;;14.80;99.90;;;;;;5055633;28;20411;-87
2021/06/22 10:21:53;;;;;;;6.80;4.90;;;14.80;99.90;;;;;;5069969;28;20551;-87
2021/06/22 10:24:19;;;;;;;9.37;5.60;;;14.80;99.90;;;;;;5040952;28;20972;-88
2021/06/22 10:26:47;;;;;;;7.80;5.00;;;14.90;99.90;;;;;;5064427;28;20591;-91
2021/06/22 10:29:19;;;;;;;5.70;5.20;;;14.90;99.90;;;;;;5071261;28;20526;-89
2021/06/22 10:31:48;;;;;;;7.10;5.30;;;15.00;99.90;;;;;;5069881;28;20880;-89
2021/06/22 10:34:15;;;;;;;8.03;5.53;;;15.00;99.90;;;;;;5036091;28;20438;-89
2021/06/22 10:36:48;;;;;;;8.73;5.10;;;15.10;99.90;;;;;;5053078;28;20864;-90
2021/06/22 10:39:22;;;;;;;7.17;5.20;;;15.10;99.90;;;;;;5070926;28;20419;-88
2021/06/22 10:41:50;;;;;;;6.30;5.70;;;15.20;99.90;;;;;;5052964;28;20437;-88
2021/06/22 10:44:34;;;;;;;5.33;4.83;;;15.20;99.90;;;;;;5054262;28;20444;-90
2021/06/22 10:47:18;;;;;;;5.63;5.03;;;15.20;99.90;;;;;;5057803;28;20451;-89
2021/06/22 10:49:58;;;;;;;5.30;4.40;;;15.20;99.90;;;;;;5032338;28;20464;-88
2021/06/22 10:52:55;;;;;;;5.73;5.20;;;15.30;99.90;;;;;;5066894;28;20433;-87
2021/06/22 10:55:56;;;;;;;4.67;4.20;;;15.30;99.90;;;;;;5056715;28;20521;-88
2021/06/22 10:58:23;;;;;;;4.77;4.37;;;15.40;99.90;;;;;;5041900;28;20450;-88
2021/06/22 11:01:07;;;;;;;6.13;4.90;;;15.40;99.90;;;;;;5052368;28;20998;-86
2021/06/22 11:03:35;;;;;;;6.43;4.13;;;15.40;99.90;;;;;;5062954;28;20508;-85
2021/06/22 11:06:21;;;;;;;5.37;4.93;;;15.50;99.90;;;;;;5063236;28;20435;-88
2021/06/22 11:08:48;;;;;;;4.73;4.33;;;15.50;99.90;;;;;;5058976;28;20442;-88
2021/06/22 11:11:35;;;;;;;5.10;4.60;;;15.50;99.90;;;;;;5068050;28;20571;-87
2021/06/22 11:14:07;;;;;;;5.30;4.80;;;15.60;99.90;;;;;;5065687;28;20444;-87
2021/06/22 11:52:06;;;;;;;5.30;4.80;;;15.90;99.90;;;;;;4763691;30;20892;-87
2021/06/22 11:55:03;;;;;;;5.23;4.73;;;15.90;99.90;;;;;;4849683;29;20464;-89
2021/06/22 11:57:36;;;;;;;5.63;5.03;;;15.90;99.90;;;;;;5006850;28;20456;-88
2021/06/22 12:00:33;;;;;;;7.60;5.33;;;15.90;99.90;;;;;;5016441;28;20434;-88
2021/06/22 12:03:02;;;;;;;5.07;4.57;;;15.90;99.90;;;;;;5056088;28;20395;-83
2021/06/22 12:05:31;;;;;;;7.00;5.70;;;15.90;99.90;;;;;;5087725;28;20531;-84
2021/06/22 12:08:00;;;;;;;7.23;5.37;;;15.90;99.90;;;;;;5072040;28;20410;-86
2021/06/22 12:10:41;;;;;;;8.07;6.77;;;15.90;99.90;;;;;;5088727;28;20460;-83
2021/06/22 12:13:10;;;;;;;6.40;5.00;;;15.90;99.90;;;;;;5090876;28;20455;-88
2021/06/22 12:15:39;;;;;;;9.30;5.50;;;15.90;99.90;;;;;;5078278;28;20537;-86
2021/06/22 12:18:07;;;;;;;6.47;5.77;;;16.00;99.90;;;;;;5056534;28;20445;-84
2021/06/22 12:20:36;;;;;;;6.10;5.20;;;15.90;99.90;;;;;;5070046;28;20440;-85
2021/06/22 12:23:07;;;;;;;7.67;6.37;;;15.90;99.90;;;;;;5067287;28;20463;-84
2021/06/22 12:25:36;;;;;;;6.40;5.80;;;15.90;99.90;;;;;;5090044;28;20831;-86
2021/06/22 12:28:04;;;;;;;6.67;6.07;;;15.90;99.90;;;;;;5071727;28;20481;-84
2021/06/22 12:30:34;;;;;;;10.17;5.80;;;16.00;99.90;;;;;;5092116;28;20457;-85
2021/06/22 12:33:08;;;;;;;7.97;5.63;;;16.00;99.90;;;;;;5072671;28;20791;-87
2021/06/22 12:35:35;;;;;;;7.70;6.20;;;16.00;99.90;;;;;;5089685;28;20974;-85
2021/06/22 12:38:05;;;;;;;6.23;5.63;;;16.00;99.90;;;;;;5077413;28;20785;-85
2021/06/22 12:40:37;;;;;;;5.93;5.33;;;16.00;99.90;;;;;;5082110;28;20508;-85
2021/06/22 12:43:04;;;;;;;6.57;5.97;;;16.10;99.90;;;;;;5091752;28;20528;-83
2021/06/22 12:45:33;;;;;;;6.20;5.63;;;16.10;99.90;;;;;;5091860;28;20484;-82
2021/06/22 12:48:00;;;;;;;7.80;6.70;;;16.20;99.90;;;;;;5093689;28;20463;-83
2021/06/22 12:50:30;;;;;;;8.20;5.80;;;16.10;99.90;;;;;;5093302;28;20480;-82
2021/06/22 12:52:57;;;;;;;7.73;6.57;;;16.20;99.90;;;;;;5094581;28;20479;-84
2021/06/22 12:58:08;;;;;;;7.80;6.57;;;16.20;99.90;;;;;;5067594;28;20926;-83
2021/06/22 13:00:41;;;;;;;9.70;7.23;;;16.00;99.90;;;;;;5079840;28;20399;-83
2021/06/22 13:03:10;;;;;;;9.07;7.20;;;16.10;99.90;;;;;;5082916;28;20512;-82
2021/06/22 13:05:39;;;;;;;7.70;6.90;;;16.10;99.90;;;;;;5074862;28;20434;-83
2021/06/22 13:08:07;;;;;;;8.60;7.60;;;16.10;99.90;;;;;;5092122;28;20479;-87
2021/06/22 13:10:43;;;;;;;9.40;7.60;;;16.10;99.90;;;;;;5093874;28;20464;-81
2021/06/22 13:13:10;;;;;;;8.80;7.57;;;16.00;99.90;;;;;;5093919;28;20428;-82
2021/06/22 13:15:38;;;;;;;8.20;7.40;;;16.00;99.90;;;;;;5094809;28;20468;-82
2021/06/22 13:18:06;;;;;;;8.67;7.57;;;16.00;99.90;;;;;;5094917;28;20410;-81
2021/06/22 13:20:34;;;;;;;8.90;6.93;;;16.00;99.90;;;;;;5083315;28;20455;-84
2021/06/22 13:23:03;;;;;;;8.17;7.40;;;15.90;99.90;;;;;;5077403;28;20524;-83
2021/06/22 13:25:31;;;;;;;7.93;7.33;;;15.90;99.90;;;;;;5092912;28;20476;-85
2021/06/22 13:28:13;;;;;;;10.57;8.07;;;15.90;99.90;;;;;;5074780;28;20842;-86
2021/06/22 13:30:47;;;;;;;8.13;7.33;;;15.90;99.90;;;;;;5056513;28;20827;-83
2021/06/22 13:33:19;;;;;;;10.00;8.60;;;15.90;99.90;;;;;;5093510;28;20501;-84
2021/06/22 13:35:53;;;;;;;9.63;8.57;;;15.80;99.90;;;;;;5091329;28;20953;-86
2021/06/22 13:38:24;;;;;;;10.30;8.47;;;15.80;99.90;;;;;;5091374;28;20455;-83
2021/06/22 13:40:52;;;;;;;8.30;7.50;;;15.80;99.90;;;;;;5060008;28;20456;-84